createdAt,value
2018-11-13T00:01:46.831Z,7.8
2018-11-13T00:06:46.728Z,7.7
2018-11-13T00:11:46.900Z,7.7
2018-11-13T00:16:46.719Z,7.8
2018-11-13T00:21:46.743Z,7.8
2018-11-13T00:26:46.868Z,7.8
2018-11-13T00:31:46.948Z,7.8
2018-11-13T00:36:46.862Z,7.9
2018-11-13T00:41:46.893Z,7.8
2018-11-13T00:46:46.934Z,7.8
2018-11-13T00:51:46.978Z,7.8
2018-11-13T00:56:47.759Z,7.6
2018-11-13T01:01:46.927Z,7.7
2018-11-13T01:06:46.753Z,7.7
2018-11-13T01:11:46.742Z,7.7
2018-11-13T01:16:46.946Z,7.7
2018-11-13T01:21:46.748Z,7.7
2018-11-13T01:26:46.765Z,7.7
2018-11-13T01:31:46.936Z,7.6
2018-11-13T01:36:46.886Z,7.6
2018-11-13T01:41:46.817Z,7.6
2018-11-13T01:46:46.926Z,7.5
2018-11-13T01:51:47.001Z,7.6
2018-11-13T01:56:46.783Z,7.6
2018-11-13T02:01:46.775Z,7.5
2018-11-13T02:06:46.964Z,7.5
2018-11-13T02:11:46.998Z,7.5
2018-11-13T02:16:46.930Z,7.6
2018-11-13T02:21:46.967Z,7.5
2018-11-13T02:26:46.998Z,7.5
2018-11-13T02:31:46.921Z,7.5
2018-11-13T02:36:46.794Z,7.4
2018-11-13T02:41:46.997Z,7.4
2018-11-13T02:46:46.939Z,7.4
2018-11-13T02:51:46.955Z,7.4
2018-11-13T02:56:46.979Z,7.4
2018-11-13T03:01:47.030Z,7.3
2018-11-13T03:06:46.959Z,7.4
2018-11-13T03:11:46.999Z,7.4
2018-11-13T03:16:46.769Z,7.4
2018-11-13T03:21:46.956Z,7.4
2018-11-13T03:26:46.996Z,7.2
2018-11-13T03:31:46.830Z,7.3
2018-11-13T03:36:46.959Z,7.3
2018-11-13T03:41:46.816Z,7.3
2018-11-13T03:46:46.824Z,7.4
2018-11-13T03:51:46.803Z,7.3
2018-11-13T03:56:46.832Z,7.3
2018-11-13T04:01:46.845Z,7.4
2018-11-13T04:06:46.829Z,7.3
2018-11-13T04:11:46.989Z,7.2
2018-11-13T04:16:46.830Z,7.2
2018-11-13T04:21:47.063Z,7.2
2018-11-13T04:26:46.835Z,7.2
2018-11-13T04:31:47.028Z,7.2
2018-11-13T04:36:47.061Z,7.3
2018-11-13T04:41:46.826Z,7.3
2018-11-13T04:46:46.868Z,7.3
2018-11-13T04:51:46.981Z,7.3
2018-11-13T04:56:47.103Z,7.3
2018-11-13T05:01:47.025Z,7.3
2018-11-13T05:06:47.071Z,7.2
2018-11-13T05:11:47.105Z,7.2
2018-11-13T05:16:46.864Z,7.3
2018-11-13T05:21:47.054Z,7.3
2018-11-13T05:26:46.877Z,7.2
2018-11-13T05:31:46.893Z,7.2
2018-11-13T05:36:46.895Z,7.1
2018-11-13T05:41:46.983Z,7.2
2018-11-13T05:46:46.907Z,7.3
2018-11-13T05:51:46.889Z,7.2
2018-11-13T05:56:46.845Z,7.2
2018-11-13T06:01:46.900Z,7.2
2018-11-13T06:06:46.950Z,7.2
2018-11-13T06:11:46.919Z,7.2
2018-11-13T06:16:46.920Z,7.2
2018-11-13T06:21:46.921Z,7.2
2018-11-13T06:26:46.920Z,7.2
2018-11-13T06:31:46.897Z,7.2
2018-11-13T06:36:46.898Z,7.2
2018-11-13T06:41:46.893Z,7.2
2018-11-13T06:46:46.909Z,7.1
2018-11-13T06:51:46.912Z,7.1
2018-11-13T06:56:46.925Z,7
2018-11-13T07:01:46.961Z,7
2018-11-13T07:06:46.948Z,7
2018-11-13T07:11:47.069Z,7.1
2018-11-13T07:16:47.147Z,7.1
2018-11-13T07:21:46.943Z,7
2018-11-13T07:26:46.945Z,7
2018-11-13T07:31:47.073Z,7
2018-11-13T07:36:46.936Z,6.9
2018-11-13T07:41:47.095Z,7
2018-11-13T07:46:47.195Z,6.9
2018-11-13T07:51:46.969Z,7.1
2018-11-13T07:56:46.974Z,7.1
2018-11-13T08:01:47.107Z,7
2018-11-13T08:06:47.065Z,7.1
2018-11-13T08:11:47.104Z,7.1
2018-11-13T08:16:47.128Z,7
2018-11-13T08:21:47.167Z,7.1
2018-11-13T08:26:47.239Z,7.1
2018-11-13T08:31:46.988Z,7
2018-11-13T08:36:47.167Z,7.1
2018-11-13T08:41:47.207Z,7.1
2018-11-13T08:46:47.126Z,7.2
2018-11-13T08:51:47.154Z,7.2
2018-11-13T08:56:46.981Z,7.2
2018-11-13T09:01:47.131Z,7.2
2018-11-13T09:06:46.988Z,7.2
2018-11-13T09:11:47.378Z,7.3
2018-11-13T09:16:47.127Z,7.3
2018-11-13T09:21:47.045Z,7.4
2018-11-13T09:26:47.017Z,7.2
2018-11-13T09:31:47.189Z,7.4
2018-11-13T09:36:47.005Z,7.3
2018-11-13T09:41:47.188Z,7.3
2018-11-13T09:46:47.263Z,7.4
2018-11-13T09:51:47.162Z,7.4
2018-11-13T09:56:47.193Z,7.6
2018-11-13T10:01:47.891Z,7.7
2018-11-13T10:06:47.282Z,7.9
2018-11-13T10:11:47.200Z,8.2
2018-11-13T10:16:47.249Z,8.2
2018-11-13T10:21:47.143Z,8.6
2018-11-13T10:26:47.195Z,8.8
2018-11-13T10:31:47.209Z,8.8
2018-11-13T10:36:47.275Z,9
2018-11-13T10:41:47.158Z,9.2
2018-11-13T10:46:47.238Z,9.2
2018-11-13T10:51:47.172Z,9
2018-11-13T10:56:47.193Z,8.9
2018-11-13T11:01:47.043Z,9.1
2018-11-13T11:06:47.271Z,9.2
2018-11-13T11:11:47.046Z,9.3
2018-11-13T11:16:47.073Z,9.6
2018-11-13T11:21:47.266Z,9.6
2018-11-13T11:26:47.186Z,9.8
2018-11-13T11:31:47.227Z,10
2018-11-13T11:36:47.021Z,10.2
2018-11-13T11:41:47.083Z,10.2
2018-11-13T11:46:47.224Z,10.4
2018-11-13T11:51:47.254Z,10.4
2018-11-13T11:56:47.298Z,10.5
2018-11-13T12:01:47.222Z,10.6
2018-11-13T12:06:47.076Z,10.8
2018-11-13T12:11:47.077Z,11
2018-11-13T12:16:47.225Z,11.2
2018-11-13T12:21:47.088Z,11.4
2018-11-13T12:26:47.309Z,11.4
2018-11-13T12:31:47.333Z,11.5
2018-11-13T12:36:47.100Z,11.5
2018-11-13T12:41:47.082Z,11.5
2018-11-13T12:46:47.342Z,11.5
2018-11-13T12:51:47.235Z,11.4
2018-11-13T12:56:47.292Z,11.3
2018-11-13T13:01:47.103Z,11.3
2018-11-13T13:06:47.251Z,11.2
2018-11-13T13:11:47.287Z,11.1
2018-11-13T13:16:47.333Z,11.1
2018-11-13T13:21:47.143Z,11.1
2018-11-13T13:26:47.123Z,11.1
2018-11-13T13:31:47.165Z,11.2
2018-11-13T13:36:47.238Z,11.3
2018-11-13T13:41:47.285Z,11.3
2018-11-13T13:46:47.424Z,11.4
2018-11-13T13:51:47.120Z,11.4
2018-11-13T13:56:47.284Z,11.3
2018-11-13T14:01:47.124Z,11.3
2018-11-13T14:06:47.375Z,11.2
2018-11-13T14:11:47.291Z,11.2
2018-11-13T14:16:47.256Z,11.2
2018-11-13T14:21:47.370Z,11.2
2018-11-13T14:26:47.305Z,11.2
2018-11-13T14:31:47.323Z,11.2
2018-11-13T14:36:47.352Z,11.2
2018-11-13T14:41:47.287Z,11.2
2018-11-13T14:46:47.319Z,11.2
2018-11-13T14:51:47.163Z,11.2
2018-11-13T14:56:47.164Z,11.2
2018-11-13T15:01:47.214Z,11.1
2018-11-13T15:06:47.174Z,11.2
2018-11-13T15:11:47.191Z,11.2
2018-11-13T15:16:47.159Z,11.3
2018-11-13T15:21:47.170Z,11.3
2018-11-13T15:26:47.190Z,11.3
2018-11-13T15:31:47.203Z,11.5
2018-11-13T15:36:47.227Z,11.6
2018-11-13T15:41:47.203Z,11.5
2018-11-13T15:46:48.451Z,11.5
2018-11-13T15:51:47.269Z,11.4
2018-11-13T15:56:47.176Z,11.4
2018-11-13T16:01:47.211Z,11.4
2018-11-13T16:06:47.250Z,11.4
2018-11-13T16:11:47.223Z,11.4
2018-11-13T16:16:47.203Z,11.4
2018-11-13T16:21:47.256Z,11.6
2018-11-13T16:26:47.202Z,11.5
2018-11-13T16:31:47.418Z,11.5
2018-11-13T16:36:47.295Z,11.5
2018-11-13T16:41:47.628Z,11.4
2018-11-13T16:46:47.213Z,11.2
2018-11-13T16:51:47.231Z,11.1
2018-11-13T16:56:47.286Z,11.1
2018-11-13T17:01:47.276Z,11
2018-11-13T17:06:47.350Z,11
2018-11-13T17:11:47.293Z,10.9
2018-11-13T17:16:47.236Z,10.9
2018-11-13T17:21:47.294Z,10.8
2018-11-13T17:26:47.252Z,10.7
2018-11-13T17:31:47.289Z,10.7
2018-11-13T17:36:47.268Z,10.6
2018-11-13T17:41:47.240Z,10.6
2018-11-13T17:46:47.254Z,10.5
2018-11-13T17:51:47.594Z,10.5
2018-11-13T17:56:48.199Z,10.4
2018-11-13T18:01:47.329Z,10.4
2018-11-13T18:06:47.236Z,10.4
2018-11-13T18:11:47.306Z,10.3
2018-11-13T18:16:47.318Z,10.3
2018-11-13T18:21:47.348Z,10.3
2018-11-13T18:26:47.396Z,10.3
2018-11-13T18:31:47.256Z,10.3
2018-11-13T18:36:47.477Z,10.2
2018-11-13T18:41:47.269Z,10.2
2018-11-13T18:46:47.460Z,10.2
2018-11-13T18:51:47.459Z,10.1
2018-11-13T18:56:47.283Z,10.1
2018-11-13T19:01:47.433Z,10.1
2018-11-13T19:06:47.949Z,10
2018-11-13T19:11:47.401Z,10
2018-11-13T19:16:47.307Z,10
2018-11-13T19:21:47.294Z,10
2018-11-13T19:26:47.459Z,10.1
2018-11-13T19:31:47.413Z,10.2
2018-11-13T19:36:47.360Z,10.3
2018-11-13T19:41:47.510Z,10.2
2018-11-13T19:46:47.305Z,10.3
2018-11-13T19:51:47.323Z,10.3
2018-11-13T19:56:47.317Z,10.3
2018-11-13T20:01:47.427Z,10.3
2018-11-13T20:06:47.348Z,10.3
2018-11-13T20:11:47.338Z,10.3
2018-11-13T20:16:47.559Z,10.3
2018-11-13T20:21:47.711Z,10.3
2018-11-13T20:26:47.498Z,10.2
2018-11-13T20:31:47.342Z,10.3
2018-11-13T20:36:47.324Z,10.3
2018-11-13T20:41:47.402Z,10.2
2018-11-13T20:46:47.357Z,10.2
2018-11-13T20:51:47.354Z,10.2
2018-11-13T20:56:47.498Z,10.2
2018-11-13T21:01:47.611Z,10.1
2018-11-13T21:06:47.373Z,10.2
2018-11-13T21:11:47.352Z,10.1
2018-11-13T21:16:47.575Z,10.1
2018-11-13T21:21:47.367Z,10.1
2018-11-13T21:26:47.507Z,10.1
2018-11-13T21:31:47.390Z,10.1
2018-11-13T21:36:47.824Z,10.1
2018-11-13T21:41:47.361Z,10.1
2018-11-13T21:46:47.394Z,10.1
2018-11-13T21:51:47.380Z,10.1
2018-11-13T21:56:47.423Z,10.1
2018-11-13T22:01:47.378Z,10.1
2018-11-13T22:06:47.371Z,10
2018-11-13T22:11:47.377Z,10
2018-11-13T22:16:47.542Z,10
2018-11-13T22:21:47.389Z,10
2018-11-13T22:26:47.403Z,9.9
2018-11-13T22:31:47.388Z,9.9
2018-11-13T22:36:47.539Z,9.9
2018-11-13T22:41:47.603Z,9.8
2018-11-13T22:46:47.538Z,9.8
2018-11-13T22:51:47.598Z,9.8
2018-11-13T22:56:47.610Z,9.8
2018-11-13T23:01:47.425Z,9.8
2018-11-13T23:06:47.423Z,9.8
2018-11-13T23:11:47.420Z,9.6
2018-11-13T23:16:47.536Z,9.7
2018-11-13T23:21:47.571Z,9.6
2018-11-13T23:26:47.607Z,9.6
2018-11-13T23:31:47.534Z,9.6
2018-11-13T23:36:47.418Z,9.6
2018-11-13T23:41:47.610Z,9.5
2018-11-13T23:46:47.659Z,9.5
2018-11-13T23:51:47.560Z,9.5
2018-11-13T23:56:47.606Z,9.4
